Latest Weather Observations for Dalby

IDQ60801

Issued at 6:32 am EST Saturday 20 December 2014 (issued every 30 minutes, with the page automatically refreshed every 10 minutes)

About weather observations | Map of weather stations | Latest weather observations for QLD | Other Formats
Station Details ID: 041522 Name: DALBY AIRPORT Lat: -27.16 Lon: 151.26 Height: 343.9 m
Data from the previous 72 hours. | See also: Recent months at Dalby
Date/Time
EST
Temp
°C
App
Temp
°C
Dew
Point
Rel
Hum
%
Delta-T
°C
Wind Press
QNH
hPa
Press
MSL
hPa
Rain
since 9 am
mm
Dir
 
Spd
km/h
Gust
km/h
Spd
kts
Gust
kts
20/06:30am 22.0 19.6 17.4 75 2.9 E 26 35 14 19 1014.5 1012.6 0.0
20/06:00am 21.1 19.5 17.5 80 2.2 E 22 28 12 15 1014.1 1012.2 0.0
20/05:30am 20.1 19.0 17.3 84 1.7 E 19 24 10 13 1013.7 1011.8 0.0
20/05:00am 19.4 18.0 17.0 86 1.5 E 20 22 11 12 1013.3 1011.4 0.0
20/04:30am 19.1 17.7 16.5 85 1.6 ESE 19 20 10 11 1012.9 1010.9 0.0
20/04:00am 19.3 17.6 16.3 83 1.8 E 20 22 11 12 1012.6 1010.6 0.0
20/03:30am 19.3 17.8 16.3 83 1.8 E 19 20 10 11 1012.5 1010.5 0.0
20/03:00am 19.2 18.1 16.4 84 1.7 ESE 17 19 9 10 1012.5 1010.5 0.0
20/02:30am 20.1 19.3 17.1 83 1.9 ESE 17 20 9 11 1012.4 1010.4 0.0
20/02:00am 19.7 18.8 16.9 84 1.7 ESE 17 19 9 10 1012.5 1010.5 0.0
20/01:30am 19.8 18.8 16.6 82 2.0 ESE 17 20 9 11 1012.7 1010.7 0.0
20/01:00am 20.6 19.2 17.0 80 2.2 ESE 20 28 11 15 1012.8 1010.8 0.0
20/12:30am 20.2 19.1 16.4 79 2.3 ESE 17 20 9 11 1013.1 1011.2 0.0
20/12:00am 20.3 19.3 15.5 74 2.9 ESE 15 17 8 9 1013.3 1011.4 0.0
 
Date/Time
EST
Temp
°C
App
Temp
°C
Dew
Point
Rel
Hum
%
Delta-T
°C
Wind Press
QNH
hPa
Press
MSL
hPa
Rain
since 9 am
mm
Dir
 
Spd
km/h
Gust
km/h
Spd
kts
Gust
kts
19/11:30pm 19.2 19.4 14.7 75 2.7 ESE 7 20 4 11 1013.7 1011.8 0.0
19/11:00pm 21.0 21.3 14.6 67 3.8 W 6 9 3 5 1013.4 1011.5 0.0
19/10:30pm 21.1 20.7 15.2 69 3.5 WNW 11 13 6 7 1013.6 1011.7 0.0
19/10:00pm 21.9 22.8 16.0 69 3.6 SW 6 7 3 4 1013.5 1011.6 0.0
19/09:30pm 21.3 21.8 16.5 74 3.0 NNW 9 11 5 6 1013.1 1011.2 0.0
19/09:00pm 22.4 23.0 15.7 66 4.1 ENE 7 9 4 5 1012.6 1010.6 0.0
19/08:30pm 23.7 23.5 15.7 61 4.9 N 11 11 6 6 1012.3 1010.3 0.0
19/08:00pm 23.3 23.6 15.9 63 4.5 N 9 11 5 6 1012.2 1010.2 0.0
19/07:30pm 26.3 26.5 14.1 47 7.4 WNW 6 7 3 4 1011.9 1009.9 0.0
19/07:00pm 28.3 27.2 10.0 32 10.4 W 6 7 3 4 1011.5 1009.6 0.0
19/06:30pm 29.8 28.4 10.9 31 11.0 WSW 9 13 5 7 1011.3 1009.4 0.0
19/06:00pm 31.3 30.2 10.6 28 12.1 WNW 7 9 4 5 1011.0 1009.1 0.0
19/05:30pm 31.4 28.4 7.8 23 13.2 SSW 13 20 7 11 1010.8 1008.9 0.0
19/05:00pm 31.9 29.5 6.9 21 13.8 SW 9 13 5 7 1010.7 1008.8 0.0
19/04:30pm 32.1 27.5 5.6 19 14.3 SW 19 26 10 14 1010.7 1008.8 0.0
19/04:00pm 32.2 27.9 7.8 22 13.7 SW 20 28 11 15 1010.6 1008.7 0.0
19/03:30pm 31.6 27.5 8.6 24 13.0 SSW 20 32 11 17 1010.7 1008.8 0.0
19/03:00pm 31.5 28.8 9.1 25 12.8 SSW 13 24 7 13 1011.0 1009.1 0.0
19/02:30pm 31.1 28.5 9.3 26 12.4 W 13 22 7 12 1011.2 1009.3 0.0
19/02:00pm 30.7 27.6 9.0 26 12.3 SW 15 24 8 13 1011.6 1009.7 0.0
19/01:30pm 30.0 27.1 11.0 31 11.1 WSW 17 32 9 17 1012.1 1010.1 0.0
19/01:00pm 29.4 28.0 14.4 40 9.2 WSW 15 28 8 15 1012.4 1010.4 0.0
19/12:30pm 29.0 28.1 15.9 45 8.2 WSW 15 20 8 11 1012.7 1010.7 0.0
19/12:00pm 28.4 27.7 17.3 51 7.1 SSW 17 26 9 14 1013.1 1011.2 0.0
19/11:30am 28.0 28.4 18.1 55 6.4 SSW 13 22 7 12 1013.4 1011.5 0.0
19/11:00am 26.5 26.4 17.8 58 5.6 SW 15 22 8 12 1013.6 1011.7 0.0
19/10:30am 25.9 26.3 17.3 59 5.4 SW 11 20 6 11 1013.6 1011.7 0.0
19/10:00am 24.8 25.0 18.5 68 4.0 W 15 20 8 11 1013.7 1011.8 0.0
19/09:30am 24.3 24.7 18.2 68 3.9 SW 13 20 7 11 1013.8 1011.9 0.0
19/09:00am 23.7 24.0 17.9 70 3.7 WSW 13 17 7 9 1014.0 1012.1 12.0
19/08:30am 23.0 23.5 17.5 71 3.5 WNW 11 15 6 8 1014.1 1012.2 12.0
19/08:00am 21.9 22.7 17.3 75 2.9 NW 9 13 5 7 1014.0 1012.1 12.0
19/07:30am 21.1 22.6 18.1 83 1.9 NW 7 11 4 6 1014.0 1012.1 12.0
19/07:00am 20.1 21.9 18.2 89 1.2 NW 6 9 3 5 1013.9 1012.0 12.0
19/06:30am 19.1 20.4 17.6 91 0.9 NNW 7 9 4 5 1013.6 1011.7 12.0
19/06:00am 18.8 20.1 17.6 93 0.7 WNW 7 9 4 5 1013.4 1011.5 12.0
19/05:30am 18.6 19.8 17.4 93 0.7 N 7 9 4 5 1013.1 1011.2 11.8
19/05:00am 18.6 19.8 17.3 92 0.8 N 7 9 4 5 1012.9 1010.9 11.8
19/04:30am 18.7 19.8 17.2 91 0.9 N 7 9 4 5 1012.8 1010.8 11.8
19/04:00am 18.7 19.4 17.0 90 1.0 NW 9 11 5 6 1013.0 1011.0 11.8
19/03:30am 18.7 19.3 16.8 89 1.2 NW 9 13 5 7 1013.0 1011.0 11.8
19/03:00am 19.0 19.4 17.3 90 1.0 NNW 11 15 6 8 1012.9 1010.9 11.8
19/02:30am 19.1 18.3 17.1 88 1.2 N 17 20 9 11 1012.5 1010.5 11.8
19/02:00am 19.5 18.9 17.5 88 1.2 NNW 17 20 9 11 1013.6 1011.7 11.8
19/01:30am 19.8 20.1 17.9 89 1.2 NNW 13 17 7 9 1013.5 1011.6 11.6
19/01:00am 20.0 21.7 18.5 91 0.9 NNW 7 9 4 5 1013.1 1011.2 11.6
19/12:30am 20.0 21.1 18.1 89 1.2 NW 9 13 5 7 1013.5 1011.6 11.6
19/12:00am 20.4 21.9 18.9 91 1.0 NW 9 13 5 7 1013.7 1011.8 11.4
 
Date/Time
EST
Temp
°C
App
Temp
°C
Dew
Point
Rel
Hum
%
Delta-T
°C
Wind Press
QNH
hPa
Press
MSL
hPa
Rain
since 9 am
mm
Dir
 
Spd
km/h
Gust
km/h
Spd
kts
Gust
kts
18/11:30pm 20.5 20.3 18.6 89 1.2 NW 17 22 9 12 1014.3 1012.4 11.4
18/11:00pm 20.8 20.8 18.9 89 1.2 W 17 20 9 11 1014.3 1012.4 10.6
18/10:30pm 20.9 20.2 18.7 87 1.4 W 20 28 11 15 1014.1 1012.2 10.2
18/10:00pm 21.4 22.6 19.9 91 1.0 W 13 17 7 9 1013.9 1012.0 10.0
18/09:30pm 21.2 21.7 20.0 93 0.8 WNW 17 22 9 12 1013.9 1012.0 10.0
18/09:00pm 21.0 22.1 19.6 92 0.9 NW 13 17 7 9 1013.4 1011.5 10.0
18/08:30pm 20.9 22.3 19.6 92 0.8 NNE 11 13 6 7 1012.2 1010.2 9.8
18/08:00pm 20.8 22.4 19.1 90 1.1 N 9 11 5 6 1012.7 1010.7 9.8
18/07:30pm 20.9 21.9 19.4 91 1.0 N 13 17 7 9 1013.7 1011.8 9.8
18/07:00pm 21.0 21.6 19.5 91 1.0 N 15 20 8 11 1013.8 1011.9 9.4
18/06:30pm 21.2 22.5 19.3 89 1.2 NNE 11 15 6 8 1013.4 1011.5 8.6
18/06:00pm 21.4 22.5 19.7 90 1.1 ENE 13 17 7 9 1012.7 1010.7 8.6
18/05:30pm 21.3 22.0 19.6 90 1.1 SE 15 20 8 11 1012.5 1010.5 8.4
18/05:00pm 21.3 21.1 19.4 89 1.2 SSW 19 28 10 15 1012.6 1010.6 6.2
18/04:56pm 21.3 20.6 19.4 89 1.2 SSW 22 35 12 19 1012.6 1010.6 6.0
18/04:30pm 22.0 19.4 19.5 86 1.6 SSW 32 43 17 23 1010.5 1008.6 4.6
18/04:04pm 22.1 18.3 19.8 87 1.5 SW 39 57 21 31 1009.3 1007.3 4.2
18/04:00pm 22.0 17.4 19.7 87 1.5 SW 43 57 23 31 1009.5 1007.5 4.2
18/03:30pm 22.3 15.0 19.1 82 2.1 WSW 56 78 30 42 1009.0 1007.0 0.6
18/03:25pm 23.6 16.4 18.5 73 3.3 SW 54 78 29 42 1009.0 1007.0 0.0
18/03:11pm 28.8 24.1 14.2 40 8.9 WNW 32 74 17 40 1008.3 1006.4 0.0
18/03:10pm 33.2 29.3 14.3 32 11.7 WNW 28 59 15 32 1007.9 1006.0 0.0
18/03:00pm 33.4 30.1 14.0 31 12.0 NW 24 32 13 17 1006.9 1004.9 0.0
18/02:30pm 33.9 29.8 13.9 30 12.4 NW 28 35 15 19 1006.5 1004.5 0.0
18/02:00pm 35.2 30.8 12.8 26 13.7 NNW 28 35 15 19 1006.6 1004.6 0.0
18/01:30pm 36.2 31.4 11.8 23 14.8 NNW 28 43 15 23 1006.9 1004.9 0.0
18/01:27pm 36.9 32.5 13.0 24 14.8 NNW 28 46 15 25 1006.9 1004.9 0.0
18/01:00pm 36.5 31.4 12.0 23 14.9 NW 30 43 16 23 1007.3 1005.3 0.0
18/12:35pm 37.3 33.1 14.6 26 14.3 NNW 30 57 16 31 1008.1 1006.2 0.0
18/12:30pm 35.7 31.4 13.2 26 13.9 NNW 28 41 15 22 1008.3 1006.4 0.0
18/12:00pm 35.1 30.2 12.7 26 13.7 NNW 30 39 16 21 1008.7 1006.7 0.0
18/11:47am 35.5 31.0 12.5 25 14.0 NNW 28 46 15 25 1008.8 1006.8 0.0
18/11:30am 35.8 31.1 12.1 24 14.4 NNW 28 41 15 22 1009.1 1007.1 0.0
18/11:19am 35.4 30.6 11.7 23 14.3 NNW 28 46 15 25 1009.3 1007.3 0.0
18/11:00am 35.8 30.2 11.4 23 14.7 NNW 32 44 17 24 1009.5 1007.5 0.0
18/10:30am 34.1 28.3 10.7 24 13.8 NNW 32 46 17 25 1010.0 1008.0 0.0
18/10:00am 33.8 27.7 11.6 26 13.3 N 35 48 19 26 1010.3 1008.3 0.0
18/09:30am 33.2 26.5 11.1 26 13.1 NNW 37 44 20 24 1010.5 1008.6 0.0
18/09:00am 31.6 26.3 12.4 31 11.5 N 32 43 17 23 1011.0 1009.1 0.0
18/08:30am 31.7 27.5 13.5 33 11.1 NNW 28 35 15 19 1011.0 1009.1 0.0
18/08:00am 30.0 26.9 13.3 36 10.1 N 22 28 12 15 1011.2 1009.3 0.0
18/07:30am 29.0 27.2 14.4 41 8.9 N 17 22 9 12 1011.3 1009.4 0.0
18/07:00am 26.4 26.5 14.5 48 7.2 NE 7 11 4 6 1011.1 1009.2 0.0
18/06:30am 24.7 23.8 14.8 54 6.0 E 13 15 7 8 1011.0 1009.1 0.0
18/06:00am 22.5 22.4 14.9 62 4.6 E 9 11 5 6 1010.7 1008.8 0.0
18/05:30am 21.6 21.0 14.7 65 4.1 ESE 11 15 6 8 1010.5 1008.6 0.0
18/05:00am 21.5 20.1 14.6 65 4.1 ESE 15 17 8 9 1009.9 1007.9 0.0
18/04:30am 21.6 20.8 14.0 62 4.5 SE 11 15 6 8 1009.5 1007.5 0.0
18/04:00am 23.0 23.5 14.0 57 5.4 E 4 7 2 4 1009.6 1007.6 0.0
18/03:30am 23.0 22.9 14.0 57 5.3 ESE 7 9 4 5 1009.5 1007.5 0.0
18/03:00am 23.2 22.4 13.9 56 5.5 NNE 11 15 6 8 1009.0 1007.0 0.0
18/02:30am 23.4 22.1 13.6 54 5.8 NNE 13 17 7 9 1008.8 1006.8 0.0
18/02:00am 24.1 21.6 13.6 52 6.2 N 19 22 10 12 1008.4 1006.5 0.0
18/01:30am 24.6 21.6 13.8 51 6.4 N 22 28 12 15 1008.4 1006.5 0.0
18/01:00am 24.9 21.4 13.5 49 6.8 N 24 35 13 19 1008.3 1006.4 0.0
18/12:30am 25.2 21.5 12.8 46 7.3 NNW 24 35 13 19 1008.5 1006.6 0.0
18/12:00am 26.1 22.2 12.2 42 8.1 N 24 32 13 17 1009.3 1007.3 0.0
 
Date/Time
EST
Temp
°C
App
Temp
°C
Dew
Point
Rel
Hum
%
Delta-T
°C
Wind Press
QNH
hPa
Press
MSL
hPa
Rain
since 9 am
mm
Dir
 
Spd
km/h
Gust
km/h
Spd
kts
Gust
kts
17/11:30pm 26.6 22.6 11.9 40 8.6 N 24 32 13 17 1009.6 1007.6 0.0
17/11:00pm 26.5 23.5 12.5 41 8.2 N 20 30 11 16 1009.1 1007.1 0.0
17/10:30pm 25.7 23.4 12.9 45 7.6 N 17 20 9 11 1009.2 1007.2 0.0
17/10:00pm 27.0 23.6 12.6 41 8.5 NNW 22 28 12 15 1008.3 1006.4 0.0
17/09:30pm 27.7 25.0 13.6 42 8.5 NW 20 26 11 14 1008.1 1006.2 0.0
17/09:00pm 29.0 26.8 13.2 37 9.5 NW 17 24 9 13 1007.9 1006.0 0.0
17/08:30pm 28.5 25.3 13.2 39 9.2 NW 22 28 12 15 1007.0 1005.0 0.0
17/08:00pm 29.4 26.4 13.6 38 9.6 NNW 22 28 12 15 1007.1 1005.1 0.0
17/07:30pm 30.4 28.3 13.7 36 10.2 N 17 20 9 11 1007.1 1005.1 0.0
17/07:00pm 31.3 28.3 13.6 34 10.8 NW 22 33 12 18 1006.7 1004.7 0.0
17/06:30pm 32.5 30.9 11.6 28 12.4 N 11 15 6 8 1005.9 1003.9 0.0
17/06:00pm 33.6 29.9 10.2 24 13.7 NW 20 30 11 16 1005.4 1003.5 0.0
17/05:30pm 34.3 31.9 10.2 23 14.1 SE 13 20 7 11 1004.6 1002.6 0.0
17/05:00pm 36.3 34.8 10.5 21 15.4 ESE 9 15 5 8 1004.2 1002.2 0.0
17/04:30pm 36.1 36.0 9.6 20 15.5 CALM 0 0 0 0 1004.1 1002.1 0.0
17/04:00pm 36.2 35.0 9.7 20 15.6 NNE 6 9 3 5 1004.2 1002.2 0.0
17/03:30pm 36.9 33.2 9.5 19 16.1 WNW 19 30 10 16 1004.4 1002.4 0.0
17/03:00pm 35.7 32.3 10.7 22 14.9 NW 19 28 10 15 1004.8 1002.8 0.0
17/02:30pm 36.9 33.2 10.2 20 15.8 WNW 20 26 11 14 1005.0 1003.0 0.0
17/02:00pm 36.9 32.8 7.8 17 16.7 WNW 19 28 10 15 1005.3 1003.4 0.0
17/01:30pm 36.8 33.6 8.6 18 16.3 WSW 15 28 8 15 1005.7 1003.7 0.0
17/01:00pm 36.8 33.3 10.2 20 15.8 WNW 19 35 10 19 1006.1 1004.1 0.0
17/12:30pm 35.9 32.0 9.4 20 15.5 W 20 35 11 19 1006.4 1004.4 0.0
17/12:00pm 36.4 32.2 9.8 20 15.7 W 22 35 12 19 1007.0 1005.0 0.0
17/11:30am 35.9 31.1 11.5 23 14.7 NW 28 43 15 23 1007.2 1005.2 0.0
17/11:00am 35.4 30.8 11.1 23 14.5 WNW 26 44 14 24 1007.5 1005.5 0.0
17/10:30am 34.6 30.2 12.9 27 13.3 NW 28 43 15 23 1007.8 1005.8 0.0
17/10:00am 33.9 29.1 12.8 28 12.9 NW 30 41 16 22 1008.1 1006.2 0.0
17/09:30am 33.4 29.2 13.5 30 12.2 NW 28 39 15 21 1008.1 1006.2 0.0
17/09:00am 32.2 27.6 13.4 32 11.5 NNW 30 41 16 22 1008.1 1006.2 0.4
17/08:30am 31.3 28.0 14.0 35 10.6 NNW 24 30 13 16 1008.2 1006.3 0.4
17/08:00am 30.4 27.0 13.7 36 10.2 NNW 24 30 13 16 1008.3 1006.4 0.4
17/07:30am 28.7 25.4 14.1 40 8.9 N 24 30 13 16 1008.3 1006.4 0.4
17/07:00am 27.0 25.1 15.1 48 7.3 NNW 19 24 10 13 1008.2 1006.3 0.4

Other Formats:

Comma delimited format used in spreadsheet applications
http://www.bom.gov.au/fwo/IDQ60801/IDQ60801.94542.axf

JavaScript Object Notation format (JSON) in row-major order
http://www.bom.gov.au/fwo/IDQ60801/IDQ60801.94542.json